Time;durP1;ratioP1;P1;durP2;ratioP2;P2;SDS_P1;SDS_P2;PMS_P1;PMS_P2;Temp;Humidity;BMP_temperature;BMP_pressure;BME280_temperature;BME280_humidity;BME280_pressure;Samples;Min_cycle;Max_cycle;Signal;HPM_P1;HPM_P2
2022/08/08 00:02:58;;;;;;;;;;;;;;;16.96;44.19;99529.95;107947;1274;97311;-66
2022/08/08 00:05:38;;;;;;;8.60;1.90;;;;;;;16.99;44.30;99532.61;107927;1274;98114;-66
2022/08/08 00:08:37;;;;;;;7.10;1.40;;;;;;;17.02;44.23;99532.67;107779;1274;114198;-65
2022/08/08 00:11:31;;;;;;;4.70;1.60;;;;;;;17.06;44.43;99534.12;107864;1276;97015;-66
2022/08/08 00:14:34;;;;;;;9.20;1.60;;;;;;;17.08;44.41;99532.52;107823;1274;107862;-66
2022/08/08 00:17:30;;;;;;;4.20;1.80;;;;;;;17.09;44.42;99527.55;107850;1274;97196;-65
2022/08/08 00:20:27;;;;;;;4.60;1.80;;;;;;;17.11;44.49;99527.15;107912;1274;97085;-64
2022/08/08 00:23:03;;;;;;;6.60;1.60;;;;;;;17.14;44.61;99526.04;107897;1274;112744;-66
2022/08/08 00:25:39;;;;;;;9.60;1.80;;;;;;;17.16;44.68;99520.84;107948;1274;97026;-65
2022/08/08 00:28:29;;;;;;;4.40;1.90;;;;;;;17.15;44.72;99515.73;107928;1274;107872;-66
2022/08/08 00:31:24;;;;;;;3.90;1.40;;;;;;;17.19;44.73;99516.63;107952;1274;96946;-65
2022/08/08 00:37:55;;;;;;;4.40;1.70;;;;;;;17.20;44.79;99520.06;107931;1274;112447;-65
2022/08/08 00:40:29;;;;;;;6.80;1.90;;;;;;;17.24;44.84;99518.30;107955;1274;97395;-66
2022/08/08 00:43:54;;;;;;;4.70;1.50;;;;;;;17.25;44.98;99522.61;107922;1274;107914;-66
2022/08/08 00:46:37;;;;;;;5.10;1.90;;;;;;;17.27;44.96;99520.18;107937;1274;97498;-65
2022/08/08 00:49:39;;;;;;;4.30;1.50;;;;;;;17.31;45.15;99518.02;107940;1274;97121;-67
2022/08/08 00:52:27;;;;;;;;;;;;;;;17.32;45.10;99516.64;107959;1274;112764;-66
2022/08/08 00:55:12;;;;;;;5.10;1.80;;;;;;;17.33;45.31;99517.10;107925;1274;97367;-66
2022/08/08 00:58:06;;;;;;;5.70;1.70;;;;;;;17.36;45.03;99519.89;107911;1274;107724;-66
2022/08/08 01:00:53;;;;;;;4.60;1.60;;;;;;;17.37;45.38;99522.08;107586;1274;97441;-67
2022/08/08 01:03:53;;;;;;;5.80;2.80;;;;;;;17.37;45.24;99514.20;107954;1274;97071;-66
2022/08/08 01:06:48;;;;;;;4.70;1.50;;;;;;;17.40;45.35;99513.20;107940;1274;112861;-67
2022/08/08 01:09:37;;;;;;;5.40;1.80;;;;;;;17.41;45.25;99511.45;107954;1274;97016;-66
2022/08/08 01:12:36;;;;;;;6.40;2.00;;;;;;;17.43;45.47;99514.50;107949;1274;107690;-67
2022/08/08 01:15:29;;;;;;;10.20;2.50;;;;;;;17.45;45.48;99515.13;107942;1274;97371;-67
2022/08/08 01:18:29;;;;;;;7.40;2.10;;;;;;;17.43;45.51;99513.83;107895;1274;97006;-66
2022/08/08 01:22:09;;;;;;;5.50;1.70;;;;;;;17.47;45.75;99512.18;107894;1274;113468;-65
2022/08/08 01:25:20;;;;;;;4.90;2.10;;;;;;;17.48;45.67;99507.12;107420;1274;97201;-65
2022/08/08 01:28:14;;;;;;;5.60;1.80;;;;;;;17.49;45.63;99508.95;107897;1274;108265;-66
2022/08/08 01:31:15;;;;;;;8.30;2.20;;;;;;;17.50;45.78;99508.34;107954;1274;97092;-65
2022/08/08 01:34:42;;;;;;;8.80;2.40;;;;;;;17.49;45.70;99506.98;107977;1274;96970;-65
2022/08/08 01:37:32;;;;;;;5.80;1.80;;;;;;;17.50;45.97;99514.60;107867;1275;112616;-66
2022/08/08 01:40:42;;;;;;;4.10;1.80;;;;;;;17.49;46.07;99506.30;107852;1276;97056;-65
2022/08/08 01:43:20;;;;;;;8.30;1.80;;;;;;;17.51;45.96;99503.91;107809;1276;107842;-65
2022/08/08 01:45:59;;;;;;;3.00;1.90;;;;;;;17.52;46.16;99498.95;107814;1276;97018;-66
2022/08/08 01:49:08;;;;;;;3.70;1.40;;;;;;;17.54;46.07;99500.44;107852;1276;97000;-66
2022/08/08 01:52:01;;;;;;;7.00;2.40;;;;;;;17.54;46.25;99498.95;107812;1276;112820;-66
2022/08/08 01:55:00;;;;;;;3.40;2.00;;;;;;;17.55;46.18;99499.46;107888;1275;97402;-66
2022/08/08 01:58:01;;;;;;;5.20;2.20;;;;;;;17.54;46.28;99497.15;107960;1274;107711;-66
2022/08/08 02:00:50;;;;;;;5.50;2.20;;;;;;;17.52;46.30;99492.91;107973;1274;97387;-67
2022/08/08 02:03:28;;;;;;;9.80;1.90;;;;;;;17.54;46.38;99501.89;107903;1276;97217;-66
2022/08/08 02:06:41;;;;;;;4.90;1.70;;;;;;;17.53;46.45;99499.95;107881;1276;112778;-67
2022/08/08 02:09:31;;;;;;;6.30;1.70;;;;;;;17.52;46.38;99500.38;107858;1276;97178;-66
2022/08/08 02:12:24;;;;;;;3.70;2.20;;;;;;;17.51;46.71;99500.50;107801;1275;108160;-67
2022/08/08 02:15:10;;;;;;;5.00;1.90;;;;;;;17.51;46.47;99505.39;107954;1274;99000;-65
2022/08/08 02:18:16;;;;;;;11.00;2.60;;;;;;;17.46;46.57;99498.81;107996;1274;96945;-65
2022/08/08 02:23:54;;;;;;;11.00;2.40;;;;;;;17.49;46.87;99495.33;107980;1274;97039;-66
2022/08/08 02:26:38;;;;;;;2.70;1.60;;;;;;;17.50;46.91;99494.02;107909;1276;107810;-66
2022/08/08 02:29:24;;;;;;;10.60;2.20;;;;;;;17.51;47.04;99490.34;107903;1275;96953;-65
2022/08/08 02:32:16;;;;;;;4.00;2.00;;;;;;;17.51;46.91;99490.89;107993;1274;96977;-65
2022/08/08 02:35:01;;;;;;;6.60;2.30;;;;;;;17.50;46.86;99491.83;107919;1275;112903;-66
2022/08/08 02:37:56;;;;;;;4.80;2.00;;;;;;;17.50;47.09;99494.84;107919;1276;97184;-66
2022/08/08 02:40:46;;;;;;;5.30;2.40;;;;;;;17.48;47.06;99500.42;107988;1274;107620;-66
2022/08/08 02:43:54;;;;;;;6.30;2.30;;;;;;;17.48;47.13;99507.28;107988;1274;96950;-66
2022/08/08 02:47:27;;;;;;;7.60;2.20;;;;;;;17.48;47.22;99512.49;107881;1276;96971;-67
2022/08/08 02:50:17;;;;;;;4.70;2.00;;;;;;;17.48;47.14;99519.10;107870;1277;112432;-66
2022/08/08 02:53:07;;;;;;;4.90;2.00;;;;;;;17.47;47.22;99517.96;107895;1276;97232;-67
2022/08/08 02:55:41;;;;;;;6.20;2.10;;;;;;;17.46;47.18;99510.48;107858;1276;108750;-67
2022/08/08 02:58:34;;;;;;;4.70;2.40;;;;;;;17.44;47.30;99513.00;107864;1276;97015;-67
2022/08/08 03:01:21;;;;;;;6.90;2.10;;;;;;;17.45;47.23;99512.98;107837;1276;96900;-66
2022/08/08 03:04:26;;;;;;;6.80;1.90;;;;;;;17.44;47.34;99515.70;107975;1273;112900;-66
2022/08/08 03:07:22;;;;;;;7.00;2.30;;;;;;;17.40;47.39;99510.16;107998;1274;97277;-66
2022/08/08 03:10:31;;;;;;;5.80;2.20;;;;;;;17.40;47.42;99511.23;107917;1274;107477;-66
2022/08/08 03:13:46;;;;;;;4.40;1.90;;;;;;;17.39;47.48;99510.27;107940;1274;96983;-65
2022/08/08 03:16:59;;;;;;;7.20;2.50;;;;;;;17.38;47.47;99501.75;108014;1274;96948;-66
2022/08/08 03:20:05;;;;;;;7.60;2.10;;;;;;;17.37;47.62;99503.79;107884;1274;112701;-65
2022/08/08 03:22:44;;;;;;;5.20;1.80;;;;;;;17.35;47.56;99505.95;107886;1274;97333;-66
2022/08/08 03:25:14;;;;;;;8.80;2.10;;;;;;;17.36;47.73;99508.06;107983;1274;107822;-66
2022/08/08 03:27:50;;;;;;;4.40;2.00;;;;;;;17.35;47.77;99505.04;107863;1274;96997;-66
2022/08/08 03:30:24;;;;;;;7.20;2.30;;;;;;;17.35;47.83;99503.83;107911;1274;96952;-66
2022/08/08 03:35:59;;;;;;;7.00;2.10;;;;;;;17.35;47.77;99509.77;108009;1274;97229;-66
2022/08/08 03:38:27;;;;;;;8.60;2.20;;;;;;;17.35;47.87;99514.60;107994;1274;107850;-67
2022/08/08 03:41:15;;;;;;;4.90;2.30;;;;;;;17.36;47.94;99516.13;107981;1274;97007;-66
2022/08/08 03:44:03;;;;;;;4.40;1.90;;;;;;;17.35;48.02;99518.73;107917;1274;97054;-67
2022/08/08 03:46:48;;;;;;;4.90;2.00;;;;;;;17.32;47.82;99521.27;107944;1274;112832;-67
2022/08/08 03:49:22;;;;;;;8.50;2.50;;;;;;;17.33;47.94;99524.50;106982;1274;1195502;-66
2022/08/08 03:52:10;;;;;;;7.80;2.40;;;;;;;17.32;47.90;99521.86;107974;1274;107850;-66
2022/08/08 03:54:44;;;;;;;8.80;2.50;;;;;;;17.30;48.08;99520.11;107988;1274;97440;-66
2022/08/08 03:57:32;;;;;;;9.10;2.50;;;;;;;17.31;48.10;99528.56;108003;1274;96977;-67
2022/08/08 04:00:22;;;;;;;3.80;1.90;;;;;;;17.30;48.13;99528.69;107973;1274;111571;-66
2022/08/08 04:03:01;;;;;;;8.40;2.30;;;;;;;17.31;48.08;99534.46;107987;1274;97082;-67
2022/08/08 04:05:32;;;;;;;5.60;2.10;;;;;;;17.32;48.43;99528.52;107964;1274;107626;-68
2022/08/08 04:08:04;;;;;;;8.00;2.10;;;;;;;17.33;48.21;99530.91;107936;1274;97030;-67
2022/08/08 04:10:35;;;;;;;7.60;2.50;;;;;;;17.31;48.25;99530.75;107982;1274;97031;-67
2022/08/08 04:13:03;;;;;;;6.40;2.40;;;;;;;17.31;48.24;99533.29;107869;1274;112862;-67
2022/08/08 04:15:46;;;;;;;5.00;2.40;;;;;;;17.28;48.30;99532.59;107962;1274;97164;-64
2022/08/08 04:18:31;;;;;;;7.50;2.00;;;;;;;17.27;48.29;99535.70;107982;1274;107844;-64
2022/08/08 04:20:59;;;;;;;5.50;2.10;;;;;;;17.29;48.37;99540.58;107939;1274;97167;-63
2022/08/08 04:23:27;;;;;;;9.70;3.20;;;;;;;17.29;48.37;99538.27;107947;1274;97040;-63
2022/08/08 04:26:15;;;;;;;7.50;2.90;;;;;;;17.27;48.46;99534.13;107929;1274;112971;-63
2022/08/08 04:28:46;;;;;;;5.00;2.30;;;;;;;17.24;48.41;99535.64;107964;1274;97147;-64
2022/08/08 04:31:14;;;;;;;7.20;2.50;;;;;;;17.27;48.61;99537.35;107953;1274;106397;-65
2022/08/08 04:34:01;;;;;;;8.70;2.70;;;;;;;17.30;48.56;99537.86;107991;1274;96900;-66
2022/08/08 04:36:31;;;;;;;9.10;2.60;;;;;;;17.32;48.75;99538.69;107906;1274;96916;-65
2022/08/08 04:38:59;;;;;;;5.30;2.20;;;;;;;17.34;48.60;99540.27;107984;1273;112622;-66
2022/08/08 04:41:47;;;;;;;8.20;2.20;;;;;;;17.38;48.90;99540.13;108009;1274;97011;-66
2022/08/08 04:44:17;;;;;;;6.40;2.30;;;;;;;17.38;48.66;99539.00;107981;1274;108580;-67
2022/08/08 04:46:47;;;;;;;6.20;2.10;;;;;;;17.42;48.81;99542.11;107855;1274;97408;-66
2022/08/08 04:49:19;;;;;;;6.20;2.40;;;;;;;17.44;48.83;99540.12;107857;1276;96919;-66
2022/08/08 04:51:55;;;;;;;8.10;2.90;;;;;;;17.45;48.85;99540.20;107836;1276;112847;-63
2022/08/08 04:54:24;;;;;;;9.10;2.40;;;;;;;17.44;48.85;99535.98;107985;1274;97283;-64
2022/08/08 04:57:09;;;;;;;5.70;1.80;;;;;;;17.49;48.92;99541.21;107968;1274;107719;-65
2022/08/08 04:59:38;;;;;;;7.00;2.40;;;;;;;17.51;48.95;99539.84;107934;1274;97213;-64
2022/08/08 05:02:09;;;;;;;5.20;2.00;;;;;;;17.51;49.01;99538.89;108017;1274;96958;-65
2022/08/08 05:04:42;;;;;;;8.80;2.20;;;;;;;17.52;48.87;99536.09;107998;1274;113322;-65
2022/08/08 05:07:11;;;;;;;8.50;2.90;;;;;;;17.54;49.07;99539.14;107878;1274;97201;-64
2022/08/08 05:09:41;;;;;;;5.80;1.90;;;;;;;17.55;49.03;99541.51;107991;1274;107702;-64
2022/08/08 05:12:09;;;;;;;4.20;1.70;;;;;;;17.58;49.05;99540.97;107900;1274;96965;-65
2022/08/08 05:14:57;;;;;;;8.10;2.20;;;;;;;17.60;49.07;99543.42;108007;1274;97037;-65
2022/08/08 05:17:26;;;;;;;5.80;2.10;;;;;;;17.62;49.17;99542.68;107858;1275;112777;-64
2022/08/08 05:20:13;;;;;;;5.00;1.90;;;;;;;17.63;49.04;99546.20;107914;1275;96988;-64
2022/08/08 05:22:41;;;;;;;8.40;2.30;;;;;;;17.60;49.05;99546.81;107922;1276;107480;-65
2022/08/08 05:25:09;;;;;;;10.00;2.60;;;;;;;17.63;49.25;99549.27;107913;1274;97171;-62
2022/08/08 05:27:37;;;;;;;8.10;2.20;;;;;;;17.66;49.38;99546.64;107878;1276;97035;-68
2022/08/08 05:30:10;;;;;;;;;;;;;;;17.69;49.44;99547.90;107851;1276;112538;-66
2022/08/08 05:32:39;;;;;;;5.90;2.30;;;;;;;17.70;49.43;99541.36;107895;1276;97403;-66
2022/08/08 05:35:11;;;;;;;6.40;2.60;;;;;;;17.74;49.44;99540.31;107884;1275;109055;-67
2022/08/08 05:37:47;;;;;;;5.60;2.40;;;;;;;17.77;49.37;99537.03;107876;1276;96967;-66
2022/08/08 05:40:21;;;;;;;6.10;2.40;;;;;;;17.81;49.51;99545.96;107909;1276;97031;-67
2022/08/08 05:43:02;;;;;;;5.00;1.90;;;;;;;17.78;49.30;99543.73;107921;1276;112771;-64
2022/08/08 05:45:54;;;;;;;6.30;2.40;;;;;;;17.82;49.43;99551.06;107793;1276;97083;-66
2022/08/08 05:48:33;;;;;;;9.50;2.50;;;;;;;17.82;49.51;99551.70;107799;1276;107876;-67
2022/08/08 05:51:05;;;;;;;8.30;2.40;;;;;;;17.86;49.49;99562.56;107858;1276;97017;-65
2022/08/08 05:53:44;;;;;;;5.50;1.80;;;;;;;17.89;49.39;99562.81;107902;1276;98813;-64
2022/08/08 05:56:37;;;;;;;8.00;2.70;;;;;;;17.87;49.53;99555.59;107901;1276;113132;-68
2022/08/08 05:59:17;;;;;;;7.60;2.50;;;;;;;17.93;49.45;99564.40;107823;1276;97302;-63
2022/08/08 06:03:09;;;;;;;9.30;2.30;;;;;;;17.90;49.47;99560.56;107837;1276;107673;-66
2022/08/08 06:05:12;;;;;;;7.80;2.20;;;;;;;17.93;49.43;99563.06;107804;1274;97073;-64
2022/08/08 06:08:00;;;;;;;10.50;2.30;;;;;;;17.95;49.71;99563.64;107775;1276;97095;-64
2022/08/08 06:10:38;;;;;;;10.00;3.10;;;;;;;17.96;49.85;99562.42;107825;1275;113348;-64
2022/08/08 06:13:08;;;;;;;8.20;2.00;;;;;;;17.98;49.48;99563.37;107854;1276;97193;-64
2022/08/08 06:15:41;;;;;;;5.80;2.10;;;;;;;18.00;49.65;99566.11;107814;1274;107904;-65
2022/08/08 06:18:23;;;;;;;3.70;1.90;;;;;;;18.02;49.61;99569.84;107848;1276;97043;-64
2022/08/08 06:20:55;;;;;;;5.90;2.30;;;;;;;18.04;49.55;99573.91;107956;1274;97103;-65
2022/08/08 06:23:26;;;;;;;4.40;2.10;;;;;;;18.11;49.62;99577.59;107981;1273;113906;-65
2022/08/08 06:26:14;;;;;;;11.70;2.70;;;;;;;18.15;49.80;99576.09;108009;1274;97247;-65
2022/08/08 06:29:08;;;;;;;10.90;2.70;;;;;;;18.18;49.99;99575.09;107985;1274;107748;-64
2022/08/08 06:32:00;;;;;;;7.90;2.70;;;;;;;18.24;49.74;99577.96;107924;1274;97125;-65
2022/08/08 06:34:48;;;;;;;10.30;2.50;;;;;;;18.27;49.81;99576.41;107952;1274;97334;-65
2022/08/08 06:37:41;;;;;;;6.40;2.40;;;;;;;18.29;49.79;99571.50;107945;1274;112724;-64
2022/08/08 06:40:14;;;;;;;8.60;2.90;;;;;;;18.32;50.03;99567.13;107933;1274;97436;-65
2022/08/08 06:42:52;;;;;;;6.30;2.60;;;;;;;18.34;49.78;99564.73;107932;1274;107859;-65
2022/08/08 06:45:21;;;;;;;10.70;2.50;;;;;;;18.40;49.87;99567.11;107939;1274;97080;-66
2022/08/08 06:47:50;;;;;;;6.10;2.50;;;;;;;18.44;49.97;99565.02;107834;1274;97426;-65
2022/08/08 06:50:31;;;;;;;9.30;2.50;;;;;;;18.47;49.73;99561.94;107624;1274;113046;-67
2022/08/08 06:53:07;;;;;;;8.00;2.90;;;;;;;18.50;49.97;99564.37;107899;1274;97323;-66
2022/08/08 06:55:44;;;;;;;10.70;3.40;;;;;;;18.52;49.93;99560.02;107922;1274;107836;-66
2022/08/08 06:58:27;;;;;;;10.30;4.60;;;;;;;18.56;49.90;99563.02;107950;1274;97129;-70
2022/08/08 07:00:59;;;;;;;12.70;4.70;;;;;;;18.61;50.10;99564.88;107957;1272;97316;-68
2022/08/08 07:03:48;;;;;;;9.30;3.30;;;;;;;18.67;50.14;99566.79;107930;1274;112890;-66
2022/08/08 07:06:41;;;;;;;10.50;3.00;;;;;;;18.67;50.02;99563.54;107953;1274;97315;-70
2022/08/08 07:09:17;;;;;;;8.90;2.80;;;;;;;18.69;50.01;99566.23;107927;1274;107711;-67
2022/08/08 07:11:50;;;;;;;7.10;3.10;;;;;;;18.74;50.14;99565.73;107938;1274;97360;-66
2022/08/08 07:14:26;;;;;;;7.50;2.40;;;;;;;18.76;49.95;99570.23;107956;1274;97244;-69
2022/08/08 07:17:10;;;;;;;8.30;2.40;;;;;;;18.83;50.15;99578.35;107919;1274;112889;-69
2022/08/08 07:20:01;;;;;;;9.50;2.70;;;;;;;18.85;50.13;99582.64;107951;1274;97391;-67
2022/08/08 07:22:39;;;;;;;6.80;2.20;;;;;;;18.88;50.09;99577.23;107923;1274;107776;-68
2022/08/08 07:25:09;;;;;;;6.50;2.20;;;;;;;18.95;50.12;99573.91;107929;1274;97051;-69
2022/08/08 07:27:48;;;;;;;8.20;2.60;;;;;;;18.97;50.07;99577.45;107980;1274;97016;-69
2022/08/08 07:30:34;;;;;;;10.20;2.60;;;;;;;19.09;49.95;99588.02;107923;1274;111807;-69
2022/08/08 07:33:03;;;;;;;8.20;2.90;;;;;;;19.13;50.11;99593.17;107923;1274;97411;-68
2022/08/08 07:35:32;;;;;;;9.20;2.90;;;;;;;19.18;50.12;99599.79;107850;1275;107850;-70
2022/08/08 07:38:03;;;;;;;9.90;2.70;;;;;;;19.25;50.11;99600.93;107921;1274;97026;-68
2022/08/08 07:40:48;;;;;;;8.10;2.70;;;;;;;19.31;50.02;99599.08;107926;1274;96965;-69
2022/08/08 07:43:20;;;;;;;6.30;2.20;;;;;;;19.34;50.13;99596.44;107914;1274;112940;-68
2022/08/08 07:46:02;;;;;;;8.90;2.70;;;;;;;19.41;50.09;99593.04;107950;1274;97061;-68
2022/08/08 07:48:50;;;;;;;6.60;2.30;;;;;;;19.45;50.10;99590.27;107925;1274;108700;-67
2022/08/08 07:51:19;;;;;;;12.60;2.70;;;;;;;19.51;50.04;99589.38;107937;1274;97298;-68
2022/08/08 07:54:13;;;;;;;7.20;2.60;;;;;;;19.55;50.11;99594.17;107949;1274;97065;-69
2022/08/08 07:57:33;;;;;;;8.50;2.80;;;;;;;19.58;50.03;99598.16;107916;1274;112798;-70
2022/08/08 08:00:13;;;;;;;6.50;2.40;;;;;;;19.61;50.02;99598.75;107901;1274;97282;-69
2022/08/08 08:02:52;;;;;;;5.40;2.20;;;;;;;19.63;49.98;99595.90;107884;1274;105700;-68
2022/08/08 08:05:24;;;;;;;9.80;2.50;;;;;;;19.65;49.98;99596.98;107873;1274;97075;-68
2022/08/08 08:08:03;;;;;;;4.80;2.10;;;;;;;19.68;49.92;99599.31;107911;1274;97027;-69
2022/08/08 08:10:33;;;;;;;12.40;2.80;;;;;;;19.70;49.99;99595.58;107916;1274;112596;-67
2022/08/08 08:13:22;;;;;;;7.80;2.90;;;;;;;19.78;50.07;99600.66;107939;1274;97162;-68
2022/08/08 08:16:16;;;;;;;10.10;3.20;;;;;;;19.82;50.01;99600.61;107915;1274;108740;-68
2022/08/08 08:18:53;;;;;;;12.00;3.10;;;;;;;19.86;50.06;99604.11;107924;1274;97084;-67
2022/08/08 08:21:31;;;;;;;8.20;2.80;;;;;;;19.91;49.95;99606.92;107860;1275;97381;-68
2022/08/08 08:24:18;;;;;;;7.80;2.50;;;;;;;19.94;49.88;99607.70;107908;1274;112870;-69
2022/08/08 08:26:56;;;;;;;5.00;2.00;;;;;;;19.98;49.78;99609.11;107907;1274;97512;-68
2022/08/08 08:29:25;;;;;;;8.80;2.70;;;;;;;19.98;49.80;99607.83;107924;1274;107987;-67
2022/08/08 08:31:55;;;;;;;10.70;2.60;;;;;;;20.00;49.84;99610.88;107934;1274;97466;-66
2022/08/08 08:34:25;;;;;;;6.50;2.30;;;;;;;20.05;49.85;99616.82;107897;1274;97135;-68
2022/08/08 08:37:01;;;;;;;13.80;2.50;;;;;;;20.07;49.87;99615.17;107810;1274;112778;-69
2022/08/08 08:39:36;;;;;;;13.00;3.00;;;;;;;20.07;49.79;99616.02;107907;1274;98192;-68
2022/08/08 08:42:25;;;;;;;5.70;2.50;;;;;;;20.12;49.88;99614.30;107845;1274;107880;-68
2022/08/08 08:45:04;;;;;;;10.60;2.50;;;;;;;20.16;49.82;99613.88;107947;1272;97108;-68
2022/08/08 08:47:53;;;;;;;7.60;2.90;;;;;;;20.19;49.84;99613.59;107961;1274;97060;-68
2022/08/08 08:50:26;;;;;;;8.30;2.70;;;;;;;20.22;49.81;99607.66;107937;1274;112681;-69
2022/08/08 08:53:08;;;;;;;9.30;3.10;;;;;;;20.25;49.80;99606.33;107967;1274;97321;-68
2022/08/08 08:55:57;;;;;;;10.30;2.50;;;;;;;20.27;49.76;99609.38;107818;1274;106716;-69
2022/08/08 08:58:34;;;;;;;8.90;2.40;;;;;;;20.29;49.70;99609.46;107937;1274;97430;-69
2022/08/08 09:01:05;;;;;;;7.90;2.40;;;;;;;20.29;49.58;99612.16;107957;1274;97050;-66
2022/08/08 09:03:43;;;;;;;10.10;2.80;;;;;;;20.28;49.55;99613.58;107934;1274;113148;-64
2022/08/08 09:06:30;;;;;;;11.40;2.50;;;;;;;20.26;49.65;99607.31;107984;1274;97308;-66
2022/08/08 09:09:04;;;;;;;10.90;3.60;;;;;;;20.29;49.69;99606.63;107842;1274;107510;-66
2022/08/08 09:11:54;;;;;;;6.50;2.60;;;;;;;20.31;49.63;99603.85;107958;1274;97030;-66
2022/08/08 09:14:37;;;;;;;9.20;2.80;;;;;;;20.32;49.73;99601.41;107988;1274;96962;-66
2022/08/08 09:17:12;;;;;;;6.80;2.50;;;;;;;20.37;49.67;99604.27;107954;1274;112875;-66
2022/08/08 09:20:01;;;;;;;5.60;2.40;;;;;;;20.44;49.71;99600.92;107970;1274;97442;-64
2022/08/08 09:22:50;;;;;;;9.10;2.80;;;;;;;20.48;49.54;99593.77;107952;1274;108811;-65
2022/08/08 09:25:24;;;;;;;8.80;2.50;;;;;;;20.51;49.57;99589.67;107960;1274;97004;-65
2022/08/08 09:28:13;;;;;;;7.70;2.40;;;;;;;20.55;49.59;99596.13;107985;1274;96909;-66
2022/08/08 09:31:07;;;;;;;10.90;2.40;;;;;;;20.53;49.57;99595.98;107898;1274;112874;-68
2022/08/08 09:33:44;;;;;;;7.10;2.10;;;;;;;20.55;49.56;99591.66;107810;1274;97126;-65
2022/08/08 09:36:34;;;;;;;8.70;2.60;;;;;;;20.60;49.48;99596.27;107818;1274;107674;-65
2022/08/08 09:39:04;;;;;;;6.70;2.50;;;;;;;20.64;49.44;99598.71;107814;1274;97028;-66
2022/08/08 09:41:58;;;;;;;12.10;2.50;;;;;;;20.66;49.58;99598.41;107971;1274;96996;-66
2022/08/08 09:45:14;;;;;;;10.00;2.60;;;;;;;20.73;49.56;99604.34;107883;1274;112855;-66
2022/08/08 09:48:03;;;;;;;8.80;2.90;;;;;;;20.82;49.46;99606.06;107907;1274;96959;-66
2022/08/08 09:50:50;;;;;;;6.50;2.30;;;;;;;20.88;49.51;99607.63;107809;1274;107432;-67
2022/08/08 09:53:27;;;;;;;8.60;2.50;;;;;;;20.97;49.60;99611.00;107818;1274;97443;-66
2022/08/08 09:56:16;;;;;;;5.10;2.40;;;;;;;21.03;49.27;99606.70;107949;1274;96957;-66
2022/08/08 09:59:03;;;;;;;8.10;2.20;;;;;;;21.11;49.39;99606.05;107911;1274;113769;-65
2022/08/08 10:01:52;;;;;;;5.40;2.10;;;;;;;21.20;49.42;99607.41;107927;1274;97410;-67
2022/08/08 10:04:32;;;;;;;19.60;2.70;;;;;;;21.29;49.27;99601.94;107931;1274;107869;-66
2022/08/08 10:07:15;;;;;;;6.20;2.30;;;;;;;21.35;49.43;99599.37;107944;1274;97265;-66
2022/08/08 10:09:50;;;;;;;8.80;2.30;;;;;;;21.44;49.19;99600.48;107939;1274;96991;-68
2022/08/08 10:12:35;;;;;;;15.70;2.60;;;;;;;21.47;49.26;99602.48;107812;1274;112862;-66
2022/08/08 10:15:22;;;;;;;4.00;2.00;;;;;;;21.53;49.38;99603.16;107924;1274;96989;-67
2022/08/08 10:17:54;;;;;;;5.70;2.50;;;;;;;21.54;49.30;99605.02;107816;1274;107867;-66
2022/08/08 10:20:45;;;;;;;9.90;2.70;;;;;;;21.53;49.20;99602.35;107907;1274;98417;-67
2022/08/08 10:23:33;;;;;;;8.80;3.00;;;;;;;21.52;49.29;99599.30;107952;1274;97434;-67
2022/08/08 10:26:31;;;;;;;7.20;2.30;;;;;;;21.52;49.09;99591.11;107954;1274;112320;-66
2022/08/08 10:29:52;;;;;;;6.70;2.40;;;;;;;21.56;49.30;99592.51;107959;1274;96993;-66
2022/08/08 10:32:40;;;;;;;9.80;2.40;;;;;;;21.58;49.29;99596.77;107912;1274;106060;-66
2022/08/08 10:35:20;;;;;;;7.50;2.30;;;;;;;21.63;48.98;99591.95;107923;1274;97070;-67
2022/08/08 10:38:14;;;;;;;7.80;2.00;;;;;;;21.65;48.92;99590.15;107956;1274;96944;-67
2022/08/08 10:40:44;;;;;;;11.30;2.60;;;;;;;21.63;49.09;99587.27;107959;1274;112727;-67
2022/08/08 10:43:12;;;;;;;8.40;2.50;;;;;;;21.65;48.79;99596.89;107910;1274;97451;-66
2022/08/08 10:45:42;;;;;;;7.30;2.20;;;;;;;21.66;48.86;99596.31;107894;1274;107896;-67
2022/08/08 10:48:34;;;;;;;8.30;2.50;;;;;;;21.67;48.86;99599.31;107912;1274;96991;-66
2022/08/08 10:51:24;;;;;;;8.90;2.20;;;;;;;21.60;48.78;99596.29;107964;1274;97427;-68
2022/08/08 10:53:56;;;;;;;8.60;2.30;;;;;;;21.57;48.68;99592.94;107957;1274;112693;-67
2022/08/08 10:56:33;;;;;;;8.50;2.50;;;;;;;21.57;48.49;99599.02;107972;1274;97452;-66
2022/08/08 10:59:09;;;;;;;9.00;2.70;;;;;;;21.49;48.54;99595.92;107918;1274;108409;-66
2022/08/08 11:01:45;;;;;;;11.70;3.10;;;;;;;21.53;48.60;99600.59;107921;1274;97056;-66
2022/08/08 11:04:21;;;;;;;8.00;2.40;;;;;;;21.55;48.70;99600.77;107960;1274;96971;-67
2022/08/08 11:07:05;;;;;;;12.20;2.90;;;;;;;21.54;48.71;99589.66;107936;1275;112886;-67
2022/08/08 11:09:46;;;;;;;10.30;3.30;;;;;;;21.56;48.56;99594.33;107930;1274;97412;-66
2022/08/08 11:12:14;;;;;;;7.30;2.20;;;;;;;21.57;48.76;99595.82;107916;1274;107840;-66
2022/08/08 11:14:58;;;;;;;8.10;2.20;;;;;;;21.60;48.63;99593.33;107915;1274;96981;-66
2022/08/08 11:17:31;;;;;;;8.60;2.40;;;;;;;21.64;48.64;99598.73;107917;1275;97066;-68
2022/08/08 11:20:28;;;;;;;10.20;2.90;;;;;;;21.67;48.81;99597.48;107781;1274;112970;-66
2022/08/08 11:22:58;;;;;;;5.90;2.50;;;;;;;21.70;48.59;99594.41;107760;1276;97281;-67
2022/08/08 11:25:29;;;;;;;7.10;2.60;;;;;;;21.74;48.70;99596.55;107809;1276;108704;-66
2022/08/08 11:28:23;;;;;;;7.20;2.30;;;;;;;21.75;48.52;99590.70;107721;1276;96982;-66
2022/08/08 11:30:58;;;;;;;7.30;2.70;;;;;;;21.80;48.58;99594.77;107705;1276;97002;-66
2022/08/08 11:33:27;;;;;;;6.30;2.50;;;;;;;21.81;48.65;99590.50;107793;1276;111451;-66
2022/08/08 11:36:15;;;;;;;9.40;2.80;;;;;;;21.87;48.56;99588.38;107925;1275;97395;-66
2022/08/08 11:38:45;;;;;;;8.00;2.40;;;;;;;21.92;48.61;99588.92;107799;1276;107899;-66
2022/08/08 11:41:25;;;;;;;6.20;2.10;;;;;;;21.96;48.41;99586.10;107849;1275;98280;-66
2022/08/08 11:43:58;;;;;;;11.70;2.60;;;;;;;22.03;48.50;99587.70;107845;1276;96982;-66
2022/08/08 11:46:28;;;;;;;6.30;2.80;;;;;;;22.08;48.73;99584.06;107825;1275;112916;-66
2022/08/08 11:49:02;;;;;;;11.10;2.50;;;;;;;22.12;48.76;99588.29;107752;1277;97021;-66
2022/08/08 11:51:33;;;;;;;7.20;2.20;;;;;;;22.16;48.57;99584.25;107718;1276;107793;-67
2022/08/08 11:54:16;;;;;;;7.10;2.50;;;;;;;22.20;48.54;99580.78;107717;1276;97329;-67
2022/08/08 11:57:10;;;;;;;10.10;2.40;;;;;;;22.21;48.62;99582.23;107762;1277;96954;-66
2022/08/08 11:59:57;;;;;;;6.50;2.10;;;;;;;22.21;48.79;99578.84;107764;1277;112674;-66
2022/08/08 12:02:43;;;;;;;5.20;2.20;;;;;;;22.23;48.53;99581.06;107862;1276;97468;-66
2022/08/08 12:05:12;;;;;;;8.40;2.10;;;;;;;22.29;48.90;99589.61;107928;1276;107894;-66
2022/08/08 12:07:43;;;;;;;8.00;2.60;;;;;;;22.33;48.86;99586.86;107918;1275;96989;-66
2022/08/08 12:10:15;;;;;;;6.40;2.40;;;;;;;22.38;48.79;99586.61;107830;1276;96971;-68
2022/08/08 12:12:45;;;;;;;8.50;2.50;;;;;;;22.45;48.89;99586.39;107827;1276;113515;-67
2022/08/08 12:15:27;;;;;;;8.80;2.30;;;;;;;22.49;48.61;99587.59;107770;1274;97479;-66
2022/08/08 12:17:55;;;;;;;8.60;2.50;;;;;;;22.50;48.57;99586.35;107873;1276;106168;-67
2022/08/08 12:20:23;;;;;;;7.10;2.40;;;;;;;22.51;48.65;99587.59;107920;1275;96984;-66
2022/08/08 12:22:52;;;;;;;9.00;2.30;;;;;;;22.50;48.88;99587.70;107969;1274;96920;-66
2022/08/08 12:25:26;;;;;;;5.50;2.40;;;;;;;22.45;48.52;99585.45;107965;1274;112822;-66
2022/08/08 12:28:12;;;;;;;6.30;2.70;;;;;;;22.36;48.45;99579.58;107997;1274;97373;-66
2022/08/08 12:30:44;;;;;;;7.40;2.30;;;;;;;22.29;48.52;99581.83;107956;1274;107870;-66
2022/08/08 12:33:25;;;;;;;9.70;2.50;;;;;;;22.24;48.47;99573.03;107945;1274;97067;-66
2022/08/08 12:36:11;;;;;;;10.30;3.00;;;;;;;22.22;48.64;99571.45;107994;1274;96956;-66
2022/08/08 12:38:52;;;;;;;8.00;2.50;;;;;;;22.21;48.63;99574.30;107961;1274;112964;-66
2022/08/08 12:41:24;;;;;;;6.20;2.20;;;;;;;22.21;48.99;99574.14;107981;1274;96995;-66
2022/08/08 12:44:11;;;;;;;8.80;2.60;;;;;;;22.19;48.77;99570.52;107924;1275;108174;-66
2022/08/08 12:46:39;;;;;;;11.30;2.30;;;;;;;22.19;48.92;99571.30;107866;1274;97034;-67